Terminal Aerodrome Forecast
Issued by NWS

Home | Current Version | Previous Version | Text Only | Print | Product List | Glossary Off
Versions: 1 2 3 4 5 6 7 8 9 10 11 12 13 14 15 16 17

000
FTUS43 KMPX 141100
TAFRNH
TAF
KRNH 141140Z 1412/1512 34017G23KT P6SM BKN035 BKN200
     FM141700 33015G21KT P6SM BKN080
     FM150100 32010KT P6SM SCT060
     FM150700 30005KT P6SM SKC=

USA.gov is the U.S. government's official web portal to all federal, state and local government web resources and services.